WI90 weather

CLOSED Speedwing Field
Babcock, Wisconsin, United States

Public forecast

Using degrees Fahrenheit for public forecast. Weather courtesy of forecast.io.

Closest aviation weather report (METAR) to Speedwing Field

Closest report is Alexander Field South Wood County Airport, 9.6 nm (17.8 km) ENE. Retrieved 2019/10/21 17:40 UTC (0 seconds ago):

KISW 211740Z AUTO 11015G28KT 3SM -RA BR BKN008 OVC011 12/10 A2926 RMK AO2 PK WND 10029/1721 CIG 005V009 P0010 T01170100

Closest aviation forecast (TAF) to Speedwing Field

Forecast is more than 6 hours old.

Closest forecast is Volk Field, 23.3 nm (43.1 km) SSW. Retrieved 2019/10/21 09:12 UTC (8 hours ago):

TAF KVOK 210900Z 2109/2215 10009KT 9000 BR BKN050 QNH2962INS BECMG 2111/2112 10012KT 9000 -SHRA BKN030 610804 QNH2945INS TEMPO 2112/2114 10015G25KT 6000 -TSRA BKN025CB BECMG 2113/2114 11015KT 8000 -SHRA BKN020 WS020/13050KT 610804 QNH2939INS TEMPO 2114/2117 11015G25KT 6000 -TSRA BKN025CB BECMG 2118/2119 13020KT 8000 -SHRA OVC015 WS020/15050KT 610804 QNH2925INS BECMG 2120/2121 18015G25KT 9999 NSW OVC025 QNH2923INS BECMG 2202/2203 18015KT 8000 -SHRA BKN015 630506 QNH2921INS BECMG 2208/2209 25015KT 8000 -SHRA BKN015 630506 QNH2922INS BECMG 2214/2215 26020G30KT 8000 -SHRA BKN015 630307 510003 QNH2933INS TX14/2120Z TN06/2208Z